Time;durP1;ratioP1;P1;durP2;ratioP2;P2;SDS_P1;SDS_P2;PMS_P1;PMS_P2;Temp;Humidity;BMP_temperature;BMP_pressure;BME280_temperature;BME280_humidity;BME280_pressure;Samples;Min_cycle;Max_cycle;Signal;HPM_P1;HPM_P2
2021/10/05 00:03:39;;;;;;;14.27;8.70;;;;;;;15.95;79.75;100903.00;5146029;57;21183;-85
2021/10/05 00:08:45;;;;;;;12.77;7.97;;;;;;;15.93;79.23;100898.78;5146040;57;21195;-85
2021/10/05 00:13:50;;;;;;;12.77;7.53;;;;;;;15.94;78.98;100895.14;5146090;57;21160;-84
2021/10/05 00:18:56;;;;;;;11.83;8.20;;;;;;;15.92;79.35;100885.09;5146091;57;21151;-85
2021/10/05 00:24:02;;;;;;;22.37;10.20;;;;;;;15.91;78.98;100877.59;5145699;57;21156;-84
2021/10/05 00:29:08;;;;;;;13.23;8.70;;;;;;;15.82;78.49;100872.64;5141410;57;21200;-84
2021/10/05 00:34:15;;;;;;;15.17;9.00;;;;;;;15.72;78.44;100870.98;5111683;57;21105;-85
2021/10/05 00:39:21;;;;;;;12.57;7.47;;;;;;;15.63;78.29;100867.34;5172526;57;21557;-84
2021/10/05 00:44:36;;;;;;;13.20;9.17;;;;;;;15.64;78.84;100859.69;5183582;57;21704;-84
2021/10/05 00:49:45;;;;;;;16.70;9.40;;;;;;;15.72;79.06;100857.66;5183816;57;21530;-85
2021/10/05 00:54:51;;;;;;;15.50;9.97;;;;;;;15.72;78.80;100861.16;5186324;57;21097;-85
2021/10/05 00:59:57;;;;;;;13.63;8.57;;;;;;;15.70;78.73;100856.95;5186298;57;21519;-84
2021/10/05 01:05:03;;;;;;;13.17;9.77;;;;;;;15.60;78.04;100860.95;5186448;57;21101;-85
2021/10/05 01:10:14;;;;;;;12.67;9.30;;;;;;;15.58;78.52;100846.95;5186350;57;21204;-85
2021/10/05 01:15:22;;;;;;;13.80;9.93;;;;;;;15.51;78.12;100840.95;5186259;56;21161;-85
2021/10/05 01:20:28;;;;;;;20.07;10.03;;;;;;;15.45;78.27;100829.02;5186336;57;21116;-85
2021/10/05 01:25:34;;;;;;;14.80;9.30;;;;;;;15.36;78.04;100837.39;5188099;57;21190;-85
2021/10/05 01:30:39;;;;;;;13.50;9.40;;;;;;;15.26;77.65;100837.91;5190581;57;21202;-85
2021/10/05 01:35:45;;;;;;;17.13;10.57;;;;;;;15.16;77.72;100838.38;5186528;57;21187;-85
2021/10/05 01:40:51;;;;;;;13.27;9.57;;;;;;;15.03;77.45;100831.16;5145815;57;21163;-85
2021/10/05 01:45:58;;;;;;;13.17;9.67;;;;;;;15.02;78.32;100826.81;5140358;57;22103;-85
2021/10/05 01:51:03;;;;;;;13.63;9.03;;;;;;;14.92;77.74;100810.84;5145729;57;21191;-84
2021/10/05 01:56:10;;;;;;;14.10;9.33;;;;;;;14.84;78.07;100819.16;5145823;57;22206;-84
2021/10/05 02:01:16;;;;;;;14.20;8.87;;;;;;;14.88;78.42;100812.59;5145733;57;21206;-84
2021/10/05 02:06:24;;;;;;;14.33;9.33;;;;;;;14.90;78.24;100800.81;5145774;57;21510;-85
2021/10/05 02:11:29;;;;;;;16.43;10.17;;;;;;;14.85;77.99;100806.20;5145869;57;21164;-86
2021/10/05 02:16:37;;;;;;;18.60;9.60;;;;;;;14.82;78.16;100800.66;5145703;57;21168;-85
2021/10/05 02:21:42;;;;;;;12.63;8.80;;;;;;;14.86;77.94;100809.22;5145728;57;22095;-85
2021/10/05 02:26:54;;;;;;;16.83;10.27;;;;;;;14.73;77.01;100802.84;5142771;57;21160;-85
2021/10/05 02:32:00;;;;;;;18.53;12.30;;;;;;;14.69;77.80;100796.94;5141238;57;21176;-84
2021/10/05 02:37:06;;;;;;;124.40;19.03;;;;;;;14.64;77.31;100799.69;5154174;56;21109;-84
2021/10/05 02:42:13;;;;;;;34.17;13.70;;;;;;;14.55;77.70;100806.66;5198402;57;21152;-85
2021/10/05 02:47:18;;;;;;;29.73;14.17;;;;;;;14.49;77.52;100805.89;5198544;57;22051;-90
2021/10/05 02:52:25;;;;;;;33.53;13.23;;;;;;;14.50;77.75;100803.59;5198567;57;22125;-85
2021/10/05 02:57:31;;;;;;;35.47;15.23;;;;;;;14.40;77.32;100788.91;5198375;57;21517;-85
2021/10/05 03:02:36;;;;;;;18.83;11.17;;;;;;;14.19;77.11;100774.84;5198158;57;21657;-84
2021/10/05 03:07:42;;;;;;;10.67;6.70;;;;;;;14.09;77.88;100765.48;5198451;57;21139;-84
2021/10/05 03:12:48;;;;;;;9.87;6.90;;;;;;;14.11;78.32;100774.66;5198563;57;21210;-85
2021/10/05 03:17:54;;;;;;;12.70;7.97;;;;;;;14.12;78.54;100767.53;5198360;57;21480;-84
2021/10/05 03:22:59;;;;;;;13.97;9.07;;;;;;;14.09;78.19;100764.16;5198462;57;21541;-85
2021/10/05 03:28:07;;;;;;;21.40;12.13;;;;;;;14.06;78.56;100760.92;5103016;57;21163;-85
2021/10/05 03:33:13;;;;;;;30.60;14.60;;;;;;;13.94;78.58;100760.68;5093885;58;21215;-86
2021/10/05 03:38:19;;;;;;;24.60;13.80;;;;;;;13.88;79.39;100761.23;5096124;58;21139;-85
2021/10/05 03:43:25;;;;;;;23.70;13.90;;;;;;;13.97;80.01;100759.93;5101547;58;21158;-85
2021/10/05 03:48:33;;;;;;;31.17;16.47;;;;;;;13.98;79.80;100758.11;5101393;58;21513;-84
2021/10/05 03:53:38;;;;;;;34.90;17.63;;;;;;;13.98;80.00;100747.47;5101633;58;21505;-84
2021/10/05 03:58:44;;;;;;;24.67;17.17;;;;;;;14.02;80.58;100742.25;5100273;58;21201;-84
2021/10/05 04:03:50;;;;;;;32.50;17.83;;;;;;;14.11;80.82;100750.73;5090933;58;21155;-84
2021/10/05 04:08:56;;;;;;;52.30;18.00;;;;;;;14.16;80.64;100748.52;5090585;58;21208;-85
2021/10/05 04:14:04;;;;;;;32.57;17.43;;;;;;;14.02;80.15;100740.43;5093328;58;21481;-84
2021/10/05 04:19:10;;;;;;;31.23;18.53;;;;;;;13.87;80.52;100739.61;5098746;58;21147;-85
2021/10/05 04:24:15;;;;;;;34.60;18.40;;;;;;;13.84;81.11;100736.72;5108084;57;21097;-85
2021/10/05 04:29:21;;;;;;;45.33;18.87;;;;;;;13.79;81.19;100720.81;5136872;57;21562;-85
2021/10/05 04:34:28;;;;;;;43.87;16.90;;;;;;;13.68;81.58;100717.28;5129426;57;21147;-84
2021/10/05 04:39:35;;;;;;;35.30;19.53;;;;;;;13.70;81.94;100728.63;5177343;56;21191;-87
2021/10/05 04:44:41;;;;;;;29.40;17.90;;;;;;;13.68;82.21;100722.61;5179737;57;21160;-89
2021/10/05 04:49:47;;;;;;;32.17;18.43;;;;;;;13.64;81.96;100720.34;5179315;57;21775;-86
2021/10/05 04:54:52;;;;;;;36.17;18.33;;;;;;;13.65;82.35;100701.60;5178456;57;21609;-85
2021/10/05 04:59:58;;;;;;;35.77;20.40;;;;;;;13.62;82.08;100696.55;5178448;57;21164;-86
2021/10/05 05:05:05;;;;;;;53.30;19.00;;;;;;;13.53;82.36;100673.94;5178361;57;21673;-86
2021/10/05 05:10:11;;;;;;;42.73;16.93;;;;;;;13.46;82.45;100669.62;5178461;57;21164;-86
2021/10/05 05:15:16;;;;;;;33.10;20.87;;;;;;;13.33;82.48;100663.22;5178419;57;21640;-87
2021/10/05 05:20:22;;;;;;;43.07;20.87;;;;;;;13.31;82.99;100666.98;5178417;57;21191;-85
2021/10/05 05:25:28;;;;;;;29.43;17.03;;;;;;;13.30;83.32;100637.41;5187958;57;21485;-86
2021/10/05 05:30:34;;;;;;;27.33;17.80;;;;;;;13.22;83.25;100626.62;5203094;57;21178;-86
2021/10/05 05:35:40;;;;;;;49.20;22.57;;;;;;;13.14;83.70;100640.52;5203074;57;21146;-86
2021/10/05 05:40:47;;;;;;;33.03;22.47;;;;;;;13.06;84.10;100639.02;5185227;57;21147;-86
2021/10/05 05:45:53;;;;;;;41.47;24.47;;;;;;;13.08;84.65;100638.41;5169527;57;21192;-87
2021/10/05 05:50:59;;;;;;;46.87;25.67;;;;;;;13.15;85.11;100640.91;5169377;57;21147;-88
2021/10/05 05:56:05;;;;;;;42.13;26.90;;;;;;;13.25;85.23;100628.53;5169513;57;21182;-86
2021/10/05 06:01:11;;;;;;;45.37;29.57;;;;;;;13.30;85.83;100626.30;5169095;57;21175;-87
2021/10/05 06:06:19;;;;;;;38.80;27.63;;;;;;;13.39;86.50;100612.71;5169106;57;21199;-87
2021/10/05 06:11:25;;;;;;;42.73;29.57;;;;;;;13.46;86.05;100613.83;5169302;57;21462;-87
2021/10/05 06:16:31;;;;;;;49.17;30.57;;;;;;;13.55;86.86;100610.38;5169256;57;21198;-86
2021/10/05 06:21:37;;;;;;;44.63;30.63;;;;;;;13.66;87.02;100604.95;5169164;57;21151;-87
2021/10/05 06:26:45;;;;;;;45.97;32.90;;;;;;;13.82;87.39;100608.89;5160233;57;21107;-87
2021/10/05 06:31:51;;;;;;;51.33;32.37;;;;;;;13.93;87.01;100596.30;5159008;57;21124;-87
2021/10/05 06:36:57;;;;;;;42.83;28.77;;;;;;;13.93;87.05;100588.33;5159105;57;21182;-87
2021/10/05 06:42:03;;;;;;;38.87;28.87;;;;;;;14.04;87.54;100590.88;5147094;56;21165;-88
2021/10/05 06:47:09;;;;;;;42.30;32.20;;;;;;;14.16;87.71;100584.08;5145998;57;21152;-89
2021/10/05 06:52:15;;;;;;;44.57;30.93;;;;;;;14.23;87.91;100589.17;5145968;57;21175;-87
2021/10/05 06:57:21;;;;;;;50.77;31.30;;;;;;;14.26;87.61;100583.58;5145873;57;21155;-88
2021/10/05 07:02:27;;;;;;;41.20;30.20;;;;;;;14.28;87.77;100594.92;5145712;57;21109;-87
2021/10/05 07:07:33;;;;;;;48.33;31.83;;;;;;;14.29;87.88;100585.97;5145835;57;21192;-87
2021/10/05 07:12:38;;;;;;;50.13;31.30;;;;;;;14.32;88.05;100591.85;5145768;57;21163;-89
2021/10/05 07:17:46;;;;;;;38.33;28.83;;;;;;;14.47;88.61;100579.47;5145878;57;21171;-87
2021/10/05 07:22:52;;;;;;;38.50;26.03;;;;;;;14.69;89.30;100565.81;5145819;57;21164;-87
2021/10/05 07:27:59;;;;;;;45.60;30.17;;;;;;;14.94;89.44;100562.53;5142067;57;21162;-87
2021/10/05 07:33:08;;;;;;;48.00;31.93;;;;;;;15.17;89.05;100544.33;5145121;57;21140;-89
2021/10/05 07:38:13;;;;;;;47.87;32.53;;;;;;;15.40;88.46;100537.63;5145575;57;21171;-87
2021/10/05 07:43:19;;;;;;;47.37;32.87;;;;;;;15.45;87.62;100522.50;5241111;56;21153;-86
2021/10/05 07:48:26;;;;;;;51.60;34.17;;;;;;;15.62;87.75;100516.38;5256179;56;21618;-87
2021/10/05 07:53:32;;;;;;;51.50;34.07;;;;;;;15.83;87.60;100514.76;5256382;56;21197;-88
2021/10/05 07:58:38;;;;;;;47.80;35.27;;;;;;;16.01;87.34;100494.75;5236862;56;21655;-87
2021/10/05 08:03:44;;;;;;;50.60;32.47;;;;;;;16.21;86.59;100484.20;5190792;57;21143;-87
2021/10/05 08:08:50;;;;;;;43.57;32.40;;;;;;;16.23;85.67;100477.38;5190929;57;21222;-88
2021/10/05 08:13:56;;;;;;;47.97;32.47;;;;;;;16.29;86.13;100466.09;5190923;57;21154;-87
2021/10/05 08:19:03;;;;;;;50.00;36.43;;;;;;;16.29;85.72;100466.94;5190877;57;21201;-81
2021/10/05 08:24:10;;;;;;;55.13;38.13;;;;;;;16.32;86.20;100462.62;5190314;57;21185;-88
2021/10/05 08:29:18;;;;;;;51.83;33.77;;;;;;;16.42;86.43;100425.97;5186531;57;21175;-87
2021/10/05 08:34:23;;;;;;;46.40;32.50;;;;;;;16.57;86.30;100406.67;5176264;57;21187;-88
2021/10/05 08:39:30;;;;;;;50.00;31.03;;;;;;;16.83;86.24;100404.80;5137574;57;21159;-88
2021/10/05 08:44:36;;;;;;;50.27;30.13;;;;;;;17.11;85.61;100406.74;5197471;56;21097;-88
2021/10/05 08:49:43;;;;;;;45.17;30.67;;;;;;;17.39;85.05;100407.28;5198685;57;21731;-87
2021/10/05 08:54:49;;;;;;;54.30;30.53;;;;;;;17.61;84.25;100399.09;5198858;57;21105;-87
2021/10/05 08:59:55;;;;;;;41.33;26.90;;;;;;;17.77;82.92;100381.23;5198583;57;21196;-87
2021/10/05 09:05:01;;;;;;;43.83;27.33;;;;;;;17.93;82.42;100377.19;5198668;57;21105;-86
2021/10/05 09:10:08;;;;;;;44.97;29.80;;;;;;;18.08;80.84;100351.06;5198587;57;21186;-87
2021/10/05 09:15:17;;;;;;;43.87;29.03;;;;;;;18.19;81.63;100348.02;5198837;57;21519;-87
2021/10/05 09:20:27;;;;;;;49.23;29.10;;;;;;;18.34;80.12;100343.61;5198488;57;21159;-87
2021/10/05 09:25:37;;;;;;;45.77;30.00;;;;;;;18.53;80.84;100341.86;5147125;57;22555;-88
2021/10/05 09:30:44;;;;;;;41.50;28.23;;;;;;;18.68;80.14;100332.61;5084696;58;21768;-86
2021/10/05 09:35:50;;;;;;;31.57;24.23;;;;;;;18.85;79.91;100323.47;5087372;58;21167;-88
2021/10/05 09:41:10;;;;;;;33.63;25.53;;;;;;;19.11;79.20;100312.89;5094081;58;21186;-88
2021/10/05 09:46:18;;;;;;;38.03;25.00;;;;;;;19.32;77.88;100299.67;5081161;58;21806;-86
2021/10/05 09:51:26;;;;;;;31.83;22.33;;;;;;;19.47;77.18;100291.15;5069488;58;21101;-87
2021/10/05 09:56:32;;;;;;;39.90;22.50;;;;;;;19.65;77.60;100277.43;5061071;58;21163;-89
2021/10/05 10:01:40;;;;;;;34.13;21.02;;;;;;;19.86;75.97;100276.17;5068242;58;21557;-88
2021/10/05 10:06:47;;;;;;;30.82;20.82;;;;;;;19.98;75.65;100257.27;5085721;58;21676;-88
2021/10/05 10:11:53;;;;;;;35.40;19.32;;;;;;;20.09;74.97;100253.78;5092290;58;21233;-88
2021/10/05 10:16:59;;;;;;;28.98;19.70;;;;;;;20.23;74.99;100245.70;5057843;58;21194;-79
2021/10/05 10:22:12;;;;;;;28.87;17.55;;;;;;;20.41;74.93;100237.27;5071510;57;21202;-78
2021/10/05 10:27:20;;;;;;;40.40;18.27;;;;;;;20.60;73.96;100235.31;5058983;57;21167;-76
2021/10/05 10:32:27;;;;;;;21.82;14.87;;;;;;;20.80;72.88;100223.39;5144451;57;21188;-78
2021/10/05 10:37:49;;;;;;;27.42;15.03;;;;;;;20.96;71.67;100211.55;5150209;57;21629;-77
2021/10/05 10:42:54;;;;;;;21.12;15.05;;;;;;;21.09;70.24;100215.69;5158027;56;21179;-77
2021/10/05 10:48:00;;;;;;;21.15;13.90;;;;;;;21.18;71.14;100199.75;5155594;56;21170;-77
2021/10/05 10:53:09;;;;;;;25.70;13.80;;;;;;;21.36;70.92;100188.53;5179128;56;21139;-76
2021/10/05 10:58:16;;;;;;;27.65;14.10;;;;;;;21.55;69.68;100171.66;5172470;56;21486;-79
2021/10/05 11:03:29;;;;;;;19.77;13.53;;;;;;;21.71;68.68;100174.02;5176920;56;21183;-79
2021/10/05 11:08:35;;;;;;;21.48;13.38;;;;;;;21.83;69.16;100169.44;5152589;57;21483;-76
2021/10/05 11:13:48;;;;;;;16.55;12.78;;;;;;;21.97;67.71;100154.47;5147979;56;21076;-77
2021/10/05 11:19:07;;;;;;;17.70;11.88;;;;;;;22.16;66.94;100156.09;5147164;56;21494;-77
2021/10/05 11:24:16;;;;;;;22.65;11.60;;;;;;;22.32;66.17;100158.41;5144899;56;21141;-80
2021/10/05 11:29:28;;;;;;;17.32;10.23;;;;;;;22.49;65.03;100148.09;5152559;56;21083;-79
2021/10/05 11:34:40;;;;;;;16.25;10.15;;;;;;;22.64;65.86;100117.20;5162771;56;21136;-80
2021/10/05 11:39:48;;;;;;;23.10;17.52;;;;;;;22.84;65.31;100114.55;5142339;57;21497;-78
2021/10/05 11:45:04;;;;;;;46.37;10.93;;;;;;;23.05;65.49;100107.59;5157516;56;21530;-79
2021/10/05 11:50:10;;;;;;;14.28;9.43;;;;;;;23.26;62.33;100090.81;5156532;56;21170;-85
2021/10/05 11:55:16;;;;;;;15.40;9.53;;;;;;;23.36;60.77;100065.59;5156603;56;21170;-85
2021/10/05 12:00:22;;;;;;;17.95;8.63;;;;;;;23.53;60.12;100062.72;5152151;56;21096;-85
2021/10/05 12:05:29;;;;;;;12.33;8.13;;;;;;;23.78;60.53;100070.92;5152680;56;21139;-85
2021/10/05 12:10:35;;;;;;;22.85;8.35;;;;;;;23.97;60.25;100052.44;5159585;56;21176;-86
2021/10/05 12:15:41;;;;;;;13.95;7.83;;;;;;;24.15;60.32;100047.09;5150953;56;21143;-83
2021/10/05 12:20:50;;;;;;;13.43;7.90;;;;;;;24.34;58.93;100031.81;5069982;57;21183;-86
2021/10/05 12:25:59;;;;;;;14.07;7.95;;;;;;;24.43;58.35;100027.80;4950534;58;21188;-86
2021/10/05 12:31:15;;;;;;;8.60;7.12;;;;;;;24.48;56.91;99998.21;5230674;55;21116;-85
2021/10/05 12:36:25;;;;;;;13.70;7.80;;;;;;;24.50;54.90;99997.99;5126707;57;21229;-84
2021/10/05 12:41:31;;;;;;;8.73;6.95;;;;;;;24.58;55.83;99995.55;5121491;56;22113;-85
2021/10/05 12:46:37;;;;;;;26.68;8.70;;;;;;;24.67;54.15;100013.13;5124047;56;22092;-85
2021/10/05 12:51:47;;;;;;;11.45;6.67;;;;;;;24.74;55.40;99991.73;5117884;56;21715;-86
2021/10/05 12:56:53;;;;;;;14.93;7.20;;;;;;;24.85;54.60;99995.05;5126829;56;21226;-86
2021/10/05 13:01:58;;;;;;;14.28;7.80;;;;;;;24.98;53.76;99990.56;5127997;56;21494;-84
2021/10/05 13:07:06;;;;;;;21.55;7.70;;;;;;;25.09;53.76;99983.03;5125852;56;21096;-87
2021/10/05 13:12:12;;;;;;;13.68;6.50;;;;;;;25.19;54.01;99984.70;5130931;56;21152;-86
2021/10/05 13:17:17;;;;;;;16.55;6.62;;;;;;;25.30;51.93;99970.92;5119194;56;21174;-86
2021/10/05 13:22:24;;;;;;;8.58;6.40;;;;;;;25.37;51.22;99967.05;5131398;56;21192;-86
2021/10/05 13:27:29;;;;;;;20.65;6.62;;;;;;;25.46;52.34;99974.34;5117695;56;21167;-86
2021/10/05 13:32:36;;;;;;;9.30;6.47;;;;;;;25.51;50.08;99979.36;5115465;56;21175;-86
2021/10/05 13:37:42;;;;;;;13.03;6.75;;;;;;;25.54;49.17;99978.91;5122910;56;21650;-87
2021/10/05 13:42:49;;;;;;;11.97;6.60;;;;;;;25.65;49.32;99981.41;5119735;56;21580;-87
2021/10/05 13:47:55;;;;;;;21.27;6.53;;;;;;;25.70;48.11;99957.67;5143155;57;21163;-88
2021/10/05 13:53:01;;;;;;;17.10;6.30;;;;;;;25.70;48.52;99974.75;5132834;56;21167;-88
2021/10/05 13:58:08;;;;;;;14.15;6.40;;;;;;;25.68;47.42;99970.09;5134053;56;21171;-89
2021/10/05 14:03:14;;;;;;;12.13;6.90;;;;;;;25.57;48.11;99968.14;5150163;56;21140;-89
2021/10/05 14:08:20;;;;;;;10.72;6.60;;;;;;;25.53;47.77;99959.64;5121682;56;21647;-88
2021/10/05 14:13:27;;;;;;;9.80;6.40;;;;;;;25.44;47.97;99949.38;5147831;57;21175;-89
2021/10/05 14:18:33;;;;;;;16.15;6.22;;;;;;;25.41;48.51;99953.89;5114803;56;21588;-89
2021/10/05 14:23:39;;;;;;;11.65;7.22;;;;;;;25.46;49.07;99949.45;5134159;56;21084;-88
2021/10/05 14:28:46;;;;;;;13.78;6.25;;;;;;;25.50;47.30;99943.88;5123218;57;21154;-89
2021/10/05 14:33:52;;;;;;;8.53;6.55;;;;;;;25.50;47.55;99933.58;5128620;56;21214;-89
2021/10/05 14:38:58;;;;;;;13.58;6.72;;;;;;;25.52;48.31;99928.73;5121044;56;22146;-88
2021/10/05 14:44:04;;;;;;;22.52;8.63;;;;;;;25.48;48.14;99921.62;5133159;56;21478;-88
2021/10/05 14:49:11;;;;;;;11.75;6.30;;;;;;;25.45;48.62;99928.84;5117772;57;21738;-88
2021/10/05 14:54:16;;;;;;;9.98;7.70;;;;;;;25.38;47.15;99914.56;5124338;56;21163;-88
2021/10/05 14:59:22;;;;;;;13.20;7.05;;;;;;;25.25;47.34;99910.69;5125958;56;21162;-88
2021/10/05 15:04:27;;;;;;;20.02;7.33;;;;;;;25.11;47.93;99918.16;5157364;56;21178;-88
2021/10/05 15:09:33;;;;;;;23.50;7.15;;;;;;;25.00;48.12;99921.64;5140606;56;21687;-88
2021/10/05 15:14:42;;;;;;;19.37;7.28;;;;;;;24.90;48.48;99926.75;5123769;56;21569;-88
2021/10/05 15:19:48;;;;;;;22.58;7.28;;;;;;;24.77;48.08;99929.05;5142580;56;21147;-88
2021/10/05 15:24:53;;;;;;;20.27;6.58;;;;;;;24.69;48.51;99929.38;5144756;56;21096;-88
2021/10/05 15:30:00;;;;;;;16.75;6.70;;;;;;;24.62;48.50;99925.90;5126334;56;21996;-88
2021/10/05 15:35:09;;;;;;;14.05;7.22;;;;;;;24.53;48.16;99919.14;5127805;56;21183;-88
2021/10/05 15:40:22;;;;;;;18.70;6.55;;;;;;;24.44;47.69;99911.84;5141575;56;21115;-88
2021/10/05 15:45:28;;;;;;;27.10;6.58;;;;;;;24.38;48.31;99922.21;5020340;57;21110;-88
2021/10/05 15:50:42;;;;;;;11.63;6.42;;;;;;;24.34;47.95;99929.11;5114621;56;21151;-88
2021/10/05 15:55:42;;;;;;;11.60;6.60;;;;;;;24.31;48.04;99927.36;5113457;57;21241;-88
2021/10/05 16:00:48;;;;;;;13.28;6.37;;;;;;;24.23;47.96;99923.09;5114207;57;21140;-89
2021/10/05 16:05:55;;;;;;;20.48;6.17;;;;;;;24.18;47.76;99926.94;5113657;57;21151;-89
2021/10/05 16:11:00;;;;;;;15.18;6.92;;;;;;;24.16;48.02;99923.63;5114999;57;21163;-88
2021/10/05 16:16:07;;;;;;;12.95;5.22;;;;;;;24.13;47.61;99926.80;5113471;57;21787;-88
2021/10/05 16:21:13;;;;;;;13.30;5.67;;;;;;;24.11;47.10;99922.13;5115123;57;21158;-89
2021/10/05 16:26:19;;;;;;;19.70;5.80;;;;;;;24.08;45.67;99926.63;5114588;57;21088;-89
2021/10/05 16:31:25;;;;;;;13.03;5.08;;;;;;;24.08;45.19;99927.97;5114616;57;21167;-88
2021/10/05 16:36:31;;;;;;;16.60;6.62;;;;;;;24.09;45.95;99932.33;5114555;57;21554;-89
2021/10/05 16:41:37;;;;;;;11.10;5.47;;;;;;;24.09;45.60;99938.56;5114773;57;21170;-88
2021/10/05 16:46:43;;;;;;;17.65;5.42;;;;;;;24.08;45.00;99942.83;5115057;57;21143;-88
2021/10/05 16:51:48;;;;;;;14.03;4.95;;;;;;;24.06;44.95;99932.77;5115373;57;21144;-89
2021/10/05 16:56:55;;;;;;;11.33;4.97;;;;;;;24.05;46.13;99939.22;5008667;58;21206;-88
2021/10/05 17:02:00;;;;;;;15.53;6.92;;;;;;;23.99;45.40;99942.27;5000532;59;21091;-89
2021/10/05 17:07:08;;;;;;;16.60;6.15;;;;;;;23.98;45.76;99946.04;4946022;59;21177;-88
2021/10/05 17:12:13;;;;;;;16.02;7.75;;;;;;;23.95;45.23;99937.55;4979421;59;21155;-87
2021/10/05 17:17:19;;;;;;;22.22;6.10;;;;;;;23.90;44.79;99942.24;5114589;57;21155;-89
2021/10/05 17:22:25;;;;;;;16.87;5.60;;;;;;;23.85;45.87;99944.77;5113823;57;21080;-88
2021/10/05 17:27:31;;;;;;;13.68;5.50;;;;;;;23.79;45.75;99943.79;5114379;57;21199;-86
2021/10/05 17:32:36;;;;;;;19.90;7.72;;;;;;;23.74;44.92;99946.30;5145083;57;21498;-89
2021/10/05 17:37:43;;;;;;;28.23;6.33;;;;;;;23.71;45.80;99954.01;5145796;57;21139;-88
2021/10/05 17:42:49;;;;;;;22.85;8.68;;;;;;;23.67;45.66;99954.16;5145761;57;21143;-86
2021/10/05 17:47:55;;;;;;;18.92;8.98;;;;;;;23.61;47.33;99953.15;5145647;57;21147;-87
2021/10/05 17:53:01;;;;;;;25.60;8.38;;;;;;;23.47;51.32;99956.42;5145643;56;22062;-87
2021/10/05 17:58:07;;;;;;;33.48;8.73;;;;;;;23.25;52.69;99965.86;5145653;57;21155;-87
2021/10/05 18:03:13;;;;;;;19.15;8.58;;;;;;;23.04;54.75;99958.92;5145704;57;21210;-87
2021/10/05 18:08:18;;;;;;;18.62;9.45;;;;;;;22.86;55.38;99956.59;5145594;57;21482;-87
2021/10/05 18:13:24;;;;;;;11.40;9.30;;;;;;;22.74;56.45;99961.27;5145625;57;21147;-88
2021/10/05 18:18:30;;;;;;;14.18;9.55;;;;;;;22.63;56.64;99961.89;5145584;57;21151;-87
2021/10/05 18:23:36;;;;;;;23.70;7.75;;;;;;;22.58;56.68;99974.36;5145530;57;21229;-88
2021/10/05 18:28:42;;;;;;;13.35;8.08;;;;;;;22.53;57.25;99981.72;5141064;57;21105;-88
2021/10/05 18:33:48;;;;;;;18.80;7.55;;;;;;;22.45;57.31;99984.66;5142060;57;21192;-88
2021/10/05 18:38:55;;;;;;;12.88;5.12;;;;;;;22.38;57.35;100002.16;5138996;57;21135;-85
2021/10/05 18:44:00;;;;;;;7.12;4.95;;;;;;;22.37;55.32;100015.84;5137813;57;21637;-91
2021/10/05 18:49:06;;;;;;;23.40;6.53;;;;;;;22.39;55.39;100048.28;5138769;57;21664;-88
2021/10/05 18:54:12;;;;;;;13.50;6.47;;;;;;;22.19;62.29;100081.09;5137411;57;21136;-86
2021/10/05 18:59:18;;;;;;;10.58;5.75;;;;;;;21.38;68.71;100072.97;5130537;57;22464;-86
2021/10/05 19:04:24;;;;;;;9.25;5.67;;;;;;;20.74;73.99;100082.25;5133315;57;21666;-88
2021/10/05 19:09:30;;;;;;;10.53;7.40;;;;;;;20.10;79.56;100105.92;5130560;57;21223;-86
2021/10/05 19:14:36;;;;;;;8.70;5.33;;;;;;;19.81;79.01;100115.41;5133652;57;21860;-86
2021/10/05 19:19:42;;;;;;;8.58;6.15;;;;;;;19.69;78.16;100112.38;5128989;57;21105;-85
2021/10/05 19:24:48;;;;;;;12.25;7.30;;;;;;;19.60;79.01;100126.89;5130847;57;21161;-87
2021/10/05 19:29:53;;;;;;;10.43;7.37;;;;;;;19.56;79.15;100129.63;5129984;57;21218;-88
2021/10/05 19:34:59;;;;;;;12.30;6.35;;;;;;;19.50;79.45;100119.66;5125123;57;21299;-87
2021/10/05 19:40:05;;;;;;;11.43;6.92;;;;;;;19.33;81.33;100137.25;5136696;57;21236;-86
2021/10/05 19:45:14;;;;;;;8.25;6.42;;;;;;;19.19;82.96;100130.03;5137271;57;21183;-85
2021/10/05 19:50:20;;;;;;;11.50;7.47;;;;;;;19.02;84.75;100119.66;5086109;57;21659;-88
2021/10/05 19:55:26;;;;;;;12.30;7.33;;;;;;;18.87;84.29;100124.48;5133920;57;21644;-88
2021/10/05 20:00:33;;;;;;;8.10;6.67;;;;;;;18.83;84.33;100113.80;5130081;57;21574;-87
2021/10/05 20:05:39;;;;;;;12.40;7.92;;;;;;;18.75;84.26;100107.20;5136594;57;21166;-86
2021/10/05 20:10:46;;;;;;;11.48;7.92;;;;;;;18.75;84.33;100130.48;5141212;57;21135;-86
2021/10/05 20:15:52;;;;;;;20.40;9.20;;;;;;;18.77;84.62;100129.79;5134827;57;21144;-86
2021/10/05 20:20:58;;;;;;;14.63;8.88;;;;;;;18.91;84.42;100120.95;5135414;57;21135;-87
2021/10/05 20:26:06;;;;;;;14.83;9.90;;;;;;;19.14;84.40;100122.20;5144503;57;21150;-87
2021/10/05 20:31:12;;;;;;;14.68;10.20;;;;;;;19.25;83.71;100109.16;5140104;57;21498;-86
2021/10/05 20:36:19;;;;;;;19.30;11.00;;;;;;;19.36;83.70;100133.37;5140302;57;21080;-86
2021/10/05 20:41:26;;;;;;;19.77;11.00;;;;;;;19.32;83.53;100120.83;5138606;57;21882;-85
2021/10/05 20:46:32;;;;;;;29.87;14.87;;;;;;;19.32;83.56;100134.75;5139763;57;21669;-87
2021/10/05 20:51:38;;;;;;;37.83;14.83;;;;;;;19.30;83.56;100144.31;5148428;57;21165;-86
2021/10/05 20:56:44;;;;;;;20.40;12.47;;;;;;;19.26;83.69;100130.94;5190507;57;21126;-86
2021/10/05 21:01:50;;;;;;;40.17;16.85;;;;;;;19.27;83.51;100132.61;5190504;57;21613;-88
2021/10/05 21:06:58;;;;;;;17.65;10.90;;;;;;;19.28;83.65;100132.10;5190576;57;21135;-88
2021/10/05 21:12:05;;;;;;;13.25;10.03;;;;;;;19.32;83.42;100130.22;5190462;57;22140;-87
2021/10/05 21:17:13;;;;;;;14.65;9.63;;;;;;;19.32;83.19;100146.30;5190678;57;21120;-87
2021/10/05 21:22:19;;;;;;;19.27;8.78;;;;;;;19.31;83.20;100141.13;5190411;57;21709;-88
2021/10/05 21:27:25;;;;;;;19.23;10.93;;;;;;;19.35;83.22;100153.66;5190598;57;21151;-87
2021/10/05 21:32:32;;;;;;;12.80;8.58;;;;;;;19.35;83.48;100168.41;5185395;57;21188;-88
2021/10/05 21:37:39;;;;;;;11.83;8.43;;;;;;;19.29;83.56;100177.50;5179522;57;21183;-88
2021/10/05 21:42:45;;;;;;;11.03;8.20;;;;;;;19.22;83.30;100190.50;5180009;57;21132;-87
2021/10/05 21:47:50;;;;;;;17.75;9.78;;;;;;;19.07;84.10;100193.16;5179618;57;21223;-87
2021/10/05 21:52:56;;;;;;;13.03;9.68;;;;;;;18.86;85.01;100180.94;5180210;57;21187;-89
2021/10/05 21:58:02;;;;;;;11.88;8.90;;;;;;;18.64;85.67;100190.65;5180589;57;21191;-88
2021/10/05 22:03:08;;;;;;;12.80;9.73;;;;;;;18.51;86.52;100197.08;5181867;57;21281;-88
2021/10/05 22:08:15;;;;;;;15.70;10.30;;;;;;;18.45;87.64;100216.55;5181395;57;21184;-87
2021/10/05 22:13:21;;;;;;;15.10;10.70;;;;;;;18.43;87.10;100195.30;5181470;57;21144;-87
2021/10/05 22:18:27;;;;;;;13.43;11.27;;;;;;;18.42;87.51;100214.22;5181910;57;21182;-87
2021/10/05 22:23:33;;;;;;;13.60;12.03;;;;;;;18.34;87.67;100223.13;5181642;57;21222;-86
2021/10/05 22:28:39;;;;;;;17.50;13.07;;;;;;;18.29;87.73;100224.17;5181797;57;21120;-87
2021/10/05 22:33:45;;;;;;;14.35;11.22;;;;;;;18.40;88.13;100230.97;5181496;57;21204;-86
2021/10/05 22:38:59;;;;;;;17.15;12.80;;;;;;;18.45;87.77;100219.23;5180929;57;21519;-87
2021/10/05 22:44:02;;;;;;;19.70;13.32;;;;;;;18.50;87.77;100231.56;5178861;56;21191;-87
2021/10/05 22:49:10;;;;;;;17.77;11.80;;;;;;;18.54;87.90;100242.26;5179820;57;21187;-86
2021/10/05 22:54:17;;;;;;;16.77;11.73;;;;;;;18.52;87.60;100238.42;5166944;57;21199;-86
2021/10/05 22:59:22;;;;;;;13.70;10.88;;;;;;;18.45;87.76;100248.19;5135129;57;21451;-86
2021/10/05 23:04:28;;;;;;;18.00;14.33;;;;;;;18.39;87.46;100234.15;5134796;57;21581;-86
2021/10/05 23:09:34;;;;;;;18.67;13.43;;;;;;;18.44;87.97;100247.86;5134870;57;22482;-87
2021/10/05 23:14:41;;;;;;;21.83;14.63;;;;;;;18.57;88.04;100248.61;5134813;57;21180;-87
2021/10/05 23:19:46;;;;;;;20.62;14.38;;;;;;;18.53;87.66;100236.57;5134922;57;21877;-86
2021/10/05 23:24:52;;;;;;;23.40;15.00;;;;;;;18.55;87.71;100246.10;5133845;57;21171;-87
2021/10/05 23:29:59;;;;;;;18.98;13.20;;;;;;;18.55;87.91;100261.34;5130306;57;21192;-87